Time;durP1;ratioP1;P1;durP2;ratioP2;P2;SDS_P1;SDS_P2;PMS_P1;PMS_P2;Temp;Humidity;BMP_temperature;BMP_pressure;BME280_temperature;BME280_humidity;BME280_pressure;Samples;Min_cycle;Max_cycle;Signal;HPM_P1;HPM_P2
2024/02/29 00:01:38;;;;;;;32.92;15.80;;;8.80;99.90;;;;;;5086139;28;20078;-78
2024/02/29 00:04:08;;;;;;;42.05;16.73;;;8.80;99.90;;;;;;5094799;28;20414;-78
2024/02/29 00:06:40;;;;;;;29.00;14.63;;;8.80;99.90;;;;;;5082982;28;20143;-76
2024/02/29 00:09:09;;;;;;;36.92;15.45;;;8.80;99.90;;;;;;5066653;28;20122;-77
2024/02/29 00:11:38;;;;;;;32.08;15.48;;;8.70;99.90;;;;;;5069974;28;20036;-77
2024/02/29 00:14:08;;;;;;;31.15;15.73;;;8.70;99.90;;;;;;5071898;28;20166;-77
2024/02/29 00:16:39;;;;;;;31.52;16.15;;;8.70;99.90;;;;;;5070554;28;20055;-77
2024/02/29 00:19:07;;;;;;;35.00;17.45;;;8.60;99.90;;;;;;5071812;28;20140;-77
2024/02/29 00:21:37;;;;;;;36.67;17.00;;;8.60;99.90;;;;;;5070610;28;20554;-77
2024/02/29 00:24:10;;;;;;;33.50;16.20;;;8.60;99.90;;;;;;5067044;28;20048;-77
2024/02/29 00:26:39;;;;;;;38.67;17.17;;;8.60;99.90;;;;;;5070343;28;20051;-77
2024/02/29 00:29:08;;;;;;;33.70;17.40;;;8.50;99.90;;;;;;5068201;28;20040;-76
2024/02/29 00:31:44;;;;;;;43.58;20.02;;;8.60;99.90;;;;;;5072779;28;20044;-74
2024/02/29 00:34:13;;;;;;;39.00;19.00;;;8.60;99.90;;;;;;5067279;28;20054;-74
2024/02/29 00:36:43;;;;;;;36.10;18.55;;;8.50;99.90;;;;;;5092446;28;20048;-74
2024/02/29 00:39:16;;;;;;;39.72;18.55;;;8.50;99.90;;;;;;5095605;28;20064;-74
2024/02/29 00:41:45;;;;;;;42.30;18.70;;;8.50;99.90;;;;;;5091640;28;20052;-74
2024/02/29 00:44:15;;;;;;;40.13;18.65;;;8.50;99.90;;;;;;5085351;28;20479;-74
2024/02/29 00:46:44;;;;;;;36.72;17.90;;;8.40;99.90;;;;;;5099899;28;20054;-73
2024/02/29 00:49:14;;;;;;;38.33;18.17;;;8.50;99.90;;;;;;5104862;28;20048;-73
2024/02/29 00:51:43;;;;;;;37.20;18.17;;;8.50;99.90;;;;;;5087666;28;20102;-74
2024/02/29 00:54:14;;;;;;;36.47;17.13;;;8.50;99.90;;;;;;5081498;28;20093;-74
2024/02/29 00:56:44;;;;;;;34.13;17.30;;;8.40;99.90;;;;;;5082291;28;20526;-74
2024/02/29 00:59:13;;;;;;;38.95;17.13;;;8.40;99.90;;;;;;5086500;28;20048;-74
2024/02/29 01:01:44;;;;;;;34.75;16.80;;;8.40;99.90;;;;;;5083974;28;20048;-74
2024/02/29 01:04:14;;;;;;;38.50;17.27;;;8.40;99.90;;;;;;5084985;28;20118;-74
2024/02/29 01:06:42;;;;;;;38.05;17.90;;;8.40;99.90;;;;;;5087786;28;20040;-74
2024/02/29 01:09:13;;;;;;;33.25;16.55;;;8.40;99.90;;;;;;5092438;28;20102;-75
2024/02/29 01:11:48;;;;;;;40.40;17.50;;;8.40;99.90;;;;;;5095433;28;20033;-74
2024/02/29 01:14:19;;;;;;;36.17;16.80;;;8.30;99.90;;;;;;5088460;28;20040;-75
2024/02/29 01:16:49;;;;;;;45.58;18.60;;;8.40;99.90;;;;;;5085477;28;20411;-75
2024/02/29 01:19:17;;;;;;;41.92;18.90;;;8.30;99.90;;;;;;5092907;28;20104;-75
2024/02/29 01:21:49;;;;;;;42.50;18.80;;;8.40;99.90;;;;;;5088253;28;20036;-75
2024/02/29 01:24:19;;;;;;;36.00;17.80;;;8.40;99.90;;;;;;5106793;28;20179;-74
2024/02/29 01:26:52;;;;;;;42.08;19.17;;;8.40;99.90;;;;;;5094386;28;20299;-76
2024/02/29 01:29:22;;;;;;;36.65;17.48;;;8.40;99.90;;;;;;5091399;28;20077;-74
2024/02/29 01:31:51;;;;;;;45.67;20.05;;;8.40;99.90;;;;;;5096052;28;20036;-74
2024/02/29 01:34:21;;;;;;;40.10;17.95;;;8.40;99.90;;;;;;5087601;28;20509;-75
2024/02/29 01:36:50;;;;;;;35.38;17.50;;;8.40;99.90;;;;;;5094506;28;20119;-74
2024/02/29 01:39:20;;;;;;;41.60;18.02;;;8.40;99.90;;;;;;5089982;28;20531;-75
2024/02/29 01:41:49;;;;;;;40.58;18.25;;;8.30;99.90;;;;;;5091005;28;20101;-75
2024/02/29 01:44:20;;;;;;;38.45;17.95;;;8.40;99.90;;;;;;5085005;28;20143;-74
2024/02/29 01:46:49;;;;;;;46.78;19.00;;;8.30;99.90;;;;;;5087055;28;20110;-76
2024/02/29 01:49:18;;;;;;;41.05;18.58;;;8.30;99.90;;;;;;5086140;28;20056;-74
2024/02/29 01:51:51;;;;;;;39.70;18.10;;;8.30;99.90;;;;;;5089232;28;20039;-75
2024/02/29 01:54:20;;;;;;;38.78;17.80;;;8.30;99.90;;;;;;5094169;28;20446;-75
2024/02/29 01:56:49;;;;;;;43.67;18.52;;;8.30;99.90;;;;;;5090481;28;20494;-75
2024/02/29 01:59:21;;;;;;;34.47;17.40;;;8.30;99.90;;;;;;5087073;28;21138;-74
2024/02/29 02:01:50;;;;;;;36.75;18.10;;;8.30;99.90;;;;;;5087511;28;20549;-74
2024/02/29 02:04:19;;;;;;;37.97;18.55;;;8.30;99.90;;;;;;5090004;28;20099;-74
2024/02/29 02:06:49;;;;;;;39.03;18.25;;;8.30;99.90;;;;;;5087538;28;20044;-75
2024/02/29 02:09:19;;;;;;;43.33;18.40;;;8.20;99.90;;;;;;5100883;28;20529;-75
2024/02/29 02:11:49;;;;;;;45.88;19.67;;;8.20;99.90;;;;;;5075749;28;20040;-74
2024/02/29 02:14:19;;;;;;;46.78;19.48;;;8.10;99.90;;;;;;5094471;28;20094;-74
2024/02/29 02:16:49;;;;;;;39.00;18.08;;;8.10;99.90;;;;;;5092977;28;20044;-74
2024/02/29 02:19:18;;;;;;;40.13;18.65;;;8.10;99.90;;;;;;5091714;28;20150;-74
2024/02/29 02:21:53;;;;;;;41.35;20.20;;;8.10;99.90;;;;;;5091788;28;20056;-74
2024/02/29 02:24:24;;;;;;;45.28;19.40;;;8.10;99.90;;;;;;5087271;28;20067;-75
2024/02/29 02:26:53;;;;;;;37.30;18.10;;;8.20;99.90;;;;;;5081788;28;20048;-75
2024/02/29 02:29:24;;;;;;;36.45;17.50;;;8.10;99.90;;;;;;5081631;28;20075;-75
2024/02/29 02:31:55;;;;;;;38.65;17.60;;;8.20;99.90;;;;;;5088691;28;20028;-74
2024/02/29 02:34:25;;;;;;;37.60;17.67;;;8.10;99.90;;;;;;5099954;28;20045;-74
2024/02/29 02:36:54;;;;;;;39.10;18.02;;;8.10;99.90;;;;;;5090776;28;20044;-75
2024/02/29 02:39:25;;;;;;;39.13;18.48;;;8.20;99.90;;;;;;5090566;28;20624;-75
2024/02/29 02:41:53;;;;;;;37.88;16.67;;;8.20;99.90;;;;;;5093192;28;20048;-75
2024/02/29 02:44:22;;;;;;;34.88;18.45;;;8.10;99.90;;;;;;5103747;28;20050;-75
2024/02/29 02:46:52;;;;;;;38.20;18.23;;;8.10;99.90;;;;;;5065834;28;20479;-75
2024/02/29 02:49:22;;;;;;;38.67;17.17;;;8.10;99.90;;;;;;5088471;28;20522;-74
2024/02/29 02:51:50;;;;;;;61.30;17.42;;;8.10;99.90;;;;;;5093010;28;20047;-75
2024/02/29 02:54:20;;;;;;;36.40;16.95;;;8.10;99.90;;;;;;5090097;28;20066;-74
2024/02/29 02:56:51;;;;;;;42.42;18.48;;;8.00;99.90;;;;;;5075843;28;20040;-74
2024/02/29 02:59:20;;;;;;;38.20;17.92;;;8.00;99.90;;;;;;5101852;28;20098;-74
2024/02/29 03:01:49;;;;;;;37.05;17.52;;;8.00;99.90;;;;;;5090859;28;20075;-75
2024/02/29 03:04:17;;;;;;;42.28;18.10;;;8.00;99.90;;;;;;5096410;28;20082;-74
2024/02/29 03:06:46;;;;;;;38.78;17.73;;;7.90;99.90;;;;;;5092014;28;20048;-74
2024/02/29 03:09:15;;;;;;;45.72;18.80;;;8.00;99.90;;;;;;5070052;28;20048;-74
2024/02/29 03:11:45;;;;;;;38.92;17.83;;;8.00;99.90;;;;;;5093330;28;20067;-74
2024/02/29 03:14:16;;;;;;;35.38;17.33;;;8.00;99.90;;;;;;5090405;28;20119;-74
2024/02/29 03:16:44;;;;;;;37.92;17.20;;;7.90;99.90;;;;;;5094270;28;20048;-74
2024/02/29 03:19:13;;;;;;;39.35;16.85;;;7.90;99.90;;;;;;5099415;28;20052;-75
2024/02/29 03:21:42;;;;;;;36.83;17.67;;;7.90;99.90;;;;;;5092062;28;20048;-74
2024/02/29 03:24:11;;;;;;;36.88;17.10;;;7.90;99.90;;;;;;5092198;28;20048;-74
2024/02/29 03:26:51;;;;;;;38.00;18.35;;;7.80;99.90;;;;;;5091312;28;20048;-74
2024/02/29 03:29:19;;;;;;;46.00;19.65;;;7.80;99.90;;;;;;5092357;28;20414;-74
2024/02/29 03:31:50;;;;;;;40.67;19.17;;;7.80;99.90;;;;;;5092179;28;20052;-75
2024/02/29 03:34:19;;;;;;;50.20;19.45;;;7.80;99.90;;;;;;5092102;28;20040;-74
2024/02/29 03:36:47;;;;;;;39.80;18.00;;;7.80;99.90;;;;;;5091953;28;20127;-74
2024/02/29 03:39:16;;;;;;;40.63;17.73;;;7.80;99.90;;;;;;5109094;28;20499;-74
2024/02/29 03:41:44;;;;;;;41.17;19.13;;;7.80;99.90;;;;;;5093412;28;20123;-74
2024/02/29 03:44:14;;;;;;;42.60;18.02;;;7.70;99.90;;;;;;5092090;28;20055;-75
2024/02/29 03:46:43;;;;;;;43.63;18.77;;;7.70;99.90;;;;;;5083653;28;20045;-75
2024/02/29 03:49:12;;;;;;;39.53;17.58;;;7.60;99.90;;;;;;5088147;28;20044;-74
2024/02/29 03:51:41;;;;;;;38.38;17.27;;;7.70;99.90;;;;;;5100581;28;20051;-74
2024/02/29 03:54:10;;;;;;;46.63;18.85;;;7.70;99.90;;;;;;5092531;28;20472;-74
2024/02/29 03:56:42;;;;;;;41.28;18.42;;;7.60;99.90;;;;;;5093229;28;20032;-75
2024/02/29 03:59:13;;;;;;;43.95;19.02;;;7.60;99.90;;;;;;5092048;28;20052;-74
2024/02/29 04:01:47;;;;;;;41.97;18.73;;;7.60;99.90;;;;;;5092133;28;20047;-74
2024/02/29 04:04:18;;;;;;;40.75;18.55;;;7.60;99.90;;;;;;5093353;28;20044;-74
2024/02/29 04:06:48;;;;;;;39.40;18.90;;;7.60;99.90;;;;;;5091888;28;20093;-74
2024/02/29 04:09:17;;;;;;;43.08;20.15;;;7.50;99.90;;;;;;5109059;28;20079;-74
2024/02/29 04:11:47;;;;;;;46.30;18.95;;;7.50;99.90;;;;;;5091851;28;20110;-74
2024/02/29 04:14:20;;;;;;;41.30;19.77;;;7.50;99.90;;;;;;5093303;28;20052;-74
2024/02/29 04:16:48;;;;;;;41.83;18.75;;;7.50;99.90;;;;;;5088560;28;20503;-74
2024/02/29 04:19:17;;;;;;;38.25;19.30;;;7.50;99.90;;;;;;5072733;28;20087;-75
2024/02/29 04:21:47;;;;;;;48.70;20.85;;;7.40;99.90;;;;;;5072952;28;20132;-75
2024/02/29 04:24:19;;;;;;;42.75;17.17;;;7.40;99.90;;;;;;5096196;28;20048;-75
2024/02/29 04:26:48;;;;;;;49.20;20.02;;;7.50;99.90;;;;;;5091789;28;20047;-75
2024/02/29 04:29:19;;;;;;;42.97;20.58;;;7.50;99.90;;;;;;5093266;28;20551;-75
2024/02/29 04:31:49;;;;;;;44.08;19.23;;;7.40;99.90;;;;;;5091798;28;20044;-75
2024/02/29 04:34:17;;;;;;;44.53;20.00;;;7.40;99.90;;;;;;5093027;28;20051;-75
2024/02/29 04:36:47;;;;;;;42.80;18.77;;;7.40;99.90;;;;;;5108699;28;20044;-75
2024/02/29 04:39:16;;;;;;;49.58;19.63;;;7.30;99.90;;;;;;5108767;28;20407;-75
2024/02/29 04:41:45;;;;;;;44.40;20.65;;;7.40;99.90;;;;;;5072974;28;20453;-75
2024/02/29 04:44:14;;;;;;;44.00;19.00;;;7.30;99.90;;;;;;5060463;28;20056;-75
2024/02/29 04:46:43;;;;;;;45.65;18.27;;;7.30;99.90;;;;;;5053840;28;20041;-75
2024/02/29 04:49:14;;;;;;;43.38;19.58;;;7.30;99.90;;;;;;5039652;28;20044;-75
2024/02/29 04:51:44;;;;;;;41.03;19.52;;;7.30;99.90;;;;;;5065203;28;20049;-75
2024/02/29 04:54:13;;;;;;;46.53;19.45;;;7.30;99.90;;;;;;5071125;28;20094;-74
2024/02/29 04:56:45;;;;;;;42.53;19.17;;;7.30;99.90;;;;;;5065590;28;20055;-75
2024/02/29 04:59:13;;;;;;;46.30;21.23;;;7.30;99.90;;;;;;5067064;28;20082;-75
2024/02/29 05:01:42;;;;;;;44.33;18.20;;;7.30;99.90;;;;;;5063805;28;20044;-75
2024/02/29 05:04:12;;;;;;;44.95;19.42;;;7.30;99.90;;;;;;5073802;28;20542;-75
2024/02/29 05:06:41;;;;;;;47.30;19.77;;;7.30;99.90;;;;;;5073819;28;20147;-75
2024/02/29 05:09:11;;;;;;;42.15;18.08;;;7.30;99.90;;;;;;5073929;28;20094;-75
2024/02/29 05:11:40;;;;;;;40.22;19.70;;;7.30;99.90;;;;;;5053390;28;20044;-75
2024/02/29 05:14:09;;;;;;;41.00;20.15;;;7.30;99.90;;;;;;5073729;28;20051;-75
2024/02/29 05:16:37;;;;;;;45.10;20.27;;;7.30;99.90;;;;;;5073584;28;20195;-75
2024/02/29 05:19:07;;;;;;;49.13;19.73;;;7.20;99.90;;;;;;5073344;28;20602;-75
2024/02/29 05:21:40;;;;;;;54.67;21.67;;;7.30;99.90;;;;;;5074455;28;20415;-75
2024/02/29 05:24:08;;;;;;;61.20;21.88;;;7.30;99.90;;;;;;5090662;28;20059;-75
2024/02/29 05:26:37;;;;;;;47.78;19.77;;;7.30;99.90;;;;;;5094545;28;20050;-75
2024/02/29 05:29:06;;;;;;;45.75;20.42;;;7.20;99.90;;;;;;5076402;28;20036;-75
2024/02/29 05:31:34;;;;;;;49.78;21.70;;;7.30;99.90;;;;;;5075577;28;20036;-75
2024/02/29 05:34:04;;;;;;;48.63;20.08;;;7.20;99.90;;;;;;5074188;28;20040;-75
2024/02/29 05:36:36;;;;;;;;;;;7.20;99.90;;;;;;5034039;28;20103;-75
2024/02/29 05:39:06;;;;;;;46.10;19.73;;;7.20;99.90;;;;;;5033623;28;20458;-75
2024/02/29 05:41:36;;;;;;;47.25;21.15;;;7.20;99.90;;;;;;5028729;28;20099;-75
2024/02/29 05:44:13;;;;;;;54.28;21.38;;;7.30;99.90;;;;;;5053131;28;20049;-75
2024/02/29 05:46:41;;;;;;;53.15;20.60;;;7.30;99.90;;;;;;5052964;28;20044;-75
2024/02/29 05:49:11;;;;;;;42.17;20.95;;;7.30;99.90;;;;;;5052736;28;20060;-75
2024/02/29 05:51:44;;;;;;;51.30;21.60;;;7.30;99.90;;;;;;5036284;28;20055;-74
2024/02/29 05:54:17;;;;;;;43.72;20.70;;;7.30;99.90;;;;;;5035812;28;20053;-75
2024/02/29 05:56:46;;;;;;;52.25;20.35;;;7.40;99.90;;;;;;5037329;28;20069;-75
2024/02/29 05:59:15;;;;;;;49.42;21.60;;;7.40;99.90;;;;;;5052848;28;20053;-75
2024/02/29 06:01:44;;;;;;;46.70;20.33;;;7.40;99.90;;;;;;5052811;28;20147;-75
2024/02/29 06:04:14;;;;;;;48.15;20.58;;;7.40;99.90;;;;;;5052809;28;20045;-75
2024/02/29 06:06:44;;;;;;;49.97;21.48;;;7.40;99.90;;;;;;5052623;28;20044;-75
2024/02/29 06:09:14;;;;;;;47.55;20.88;;;7.40;99.90;;;;;;5052822;28;20049;-75
2024/02/29 06:11:43;;;;;;;47.20;19.70;;;7.40;99.90;;;;;;5052722;28;20095;-76
2024/02/29 06:14:12;;;;;;;49.92;21.75;;;7.40;99.90;;;;;;5062923;28;20056;-76
2024/02/29 06:16:40;;;;;;;51.92;22.73;;;7.50;99.90;;;;;;5091265;28;20043;-75
2024/02/29 06:19:11;;;;;;;49.92;21.52;;;7.50;99.90;;;;;;5087324;28;20122;-76
2024/02/29 06:21:41;;;;;;;54.95;21.63;;;7.50;99.90;;;;;;5109608;28;20052;-76
2024/02/29 06:24:18;;;;;;;50.03;22.52;;;7.50;99.90;;;;;;5073333;28;20174;-75
2024/02/29 06:26:48;;;;;;;60.78;23.25;;;7.60;99.90;;;;;;5087643;28;20051;-75
2024/02/29 06:29:31;;;;;;;56.60;22.67;;;7.60;99.90;;;;;;5085870;28;20044;-76
2024/02/29 06:32:03;;;;;;;58.75;24.73;;;7.70;99.90;;;;;;5101285;28;20044;-75
2024/02/29 06:34:32;;;;;;;63.65;25.48;;;7.70;99.90;;;;;;5096479;28;20049;-75
2024/02/29 06:37:00;;;;;;;65.82;25.92;;;7.80;99.90;;;;;;5090544;28;20442;-75
2024/02/29 06:39:31;;;;;;;56.85;24.42;;;7.70;99.90;;;;;;5100485;28;20059;-75
2024/02/29 06:42:00;;;;;;;63.72;24.75;;;7.80;99.90;;;;;;5088403;28;20127;-76
2024/02/29 06:44:28;;;;;;;66.32;25.38;;;7.80;99.90;;;;;;5100628;28;20143;-75
2024/02/29 06:46:57;;;;;;;63.85;26.17;;;7.80;99.90;;;;;;5088067;28;20135;-76
2024/02/29 06:49:27;;;;;;;58.97;24.45;;;7.90;99.90;;;;;;5101756;28;20407;-75
2024/02/29 06:51:58;;;;;;;60.00;25.75;;;7.80;99.90;;;;;;5092345;28;20403;-76
2024/02/29 06:54:28;;;;;;;58.40;25.45;;;7.80;99.90;;;;;;5092683;28;20044;-76
2024/02/29 06:56:59;;;;;;;58.28;25.85;;;7.80;99.90;;;;;;5093095;28;20066;-77
2024/02/29 06:59:28;;;;;;;61.30;26.42;;;7.80;99.90;;;;;;5081431;28;20048;-76
2024/02/29 07:01:58;;;;;;;57.72;26.13;;;7.80;99.90;;;;;;5089277;28;20119;-76
2024/02/29 07:04:26;;;;;;;66.38;26.27;;;7.90;99.90;;;;;;5103849;28;20143;-76
2024/02/29 07:06:55;;;;;;;56.22;24.52;;;7.90;99.90;;;;;;5087712;28;20040;-76
2024/02/29 07:09:24;;;;;;;64.72;25.75;;;7.90;99.90;;;;;;5093211;28;20138;-75
2024/02/29 07:11:52;;;;;;;63.88;27.98;;;7.90;99.90;;;;;;5089565;28;20058;-77
2024/02/29 07:14:27;;;;;;;58.42;24.92;;;7.90;99.90;;;;;;5102589;27;20048;-77
2024/02/29 07:16:57;;;;;;;57.85;26.23;;;7.90;99.90;;;;;;5092658;28;20525;-77
2024/02/29 07:19:26;;;;;;;54.90;24.23;;;7.90;99.90;;;;;;5089639;28;20055;-77
2024/02/29 07:21:57;;;;;;;46.53;21.92;;;8.00;99.90;;;;;;5088558;28;20101;-75
2024/02/29 07:24:27;;;;;;;50.28;21.60;;;8.10;99.90;;;;;;5095508;28;20056;-76
2024/02/29 07:26:56;;;;;;;51.65;21.15;;;8.10;99.90;;;;;;5102031;28;20044;-76
2024/02/29 07:29:26;;;;;;;47.00;21.65;;;8.10;99.90;;;;;;5086326;28;20154;-76
2024/02/29 07:31:56;;;;;;;51.33;21.35;;;8.20;99.90;;;;;;5103784;28;20068;-76
2024/02/29 07:34:24;;;;;;;47.88;20.15;;;8.20;99.90;;;;;;5091184;28;20067;-77
2024/02/29 07:36:54;;;;;;;47.40;21.30;;;8.30;99.90;;;;;;5082996;28;20472;-76
2024/02/29 07:39:26;;;;;;;52.25;21.73;;;8.40;99.90;;;;;;5049875;28;20143;-76
2024/02/29 07:41:55;;;;;;;46.95;22.50;;;8.40;99.90;;;;;;5098282;28;20068;-76
2024/02/29 07:44:27;;;;;;;44.45;19.88;;;8.40;99.90;;;;;;5091060;28;20051;-77
2024/02/29 07:46:57;;;;;;;49.40;20.00;;;8.50;99.90;;;;;;5059893;28;20053;-78
2024/02/29 07:49:26;;;;;;;50.38;21.88;;;8.50;99.90;;;;;;5081231;28;20454;-77
2024/02/29 07:51:55;;;;;;;43.40;19.50;;;8.50;99.90;;;;;;5059136;28;20044;-77
2024/02/29 07:54:27;;;;;;;40.38;19.90;;;8.60;99.90;;;;;;5044536;28;20059;-78
2024/02/29 07:56:57;;;;;;;47.40;21.02;;;8.60;99.90;;;;;;5064760;28;20048;-77
2024/02/29 07:59:28;;;;;;;42.60;21.45;;;8.60;99.90;;;;;;5062967;28;20121;-77
2024/02/29 08:01:57;;;;;;;44.95;20.95;;;8.70;99.90;;;;;;5081014;28;20048;-77
2024/02/29 08:04:25;;;;;;;45.28;19.05;;;8.80;99.90;;;;;;5062758;28;20044;-76
2024/02/29 08:06:54;;;;;;;40.53;20.02;;;8.80;99.90;;;;;;5059827;28;20044;-77
2024/02/29 08:09:26;;;;;;;41.58;17.92;;;8.90;99.90;;;;;;5062668;28;20133;-78
2024/02/29 08:11:54;;;;;;;38.08;17.05;;;9.00;99.90;;;;;;5065465;28;20506;-78
2024/02/29 08:14:22;;;;;;;32.88;16.75;;;9.10;99.90;;;;;;5077353;28;20507;-78
2024/02/29 08:16:52;;;;;;;35.17;15.63;;;9.20;99.90;;;;;;5066592;28;20075;-75
2024/02/29 08:19:21;;;;;;;35.20;14.75;;;9.20;99.90;;;;;;5100098;28;20064;-76
2024/02/29 08:21:52;;;;;;;28.08;14.60;;;9.30;99.90;;;;;;5083559;28;20044;-76
2024/02/29 08:24:20;;;;;;;31.00;13.82;;;9.40;99.90;;;;;;5084970;28;20052;-77
2024/02/29 08:26:49;;;;;;;28.35;14.25;;;9.60;99.90;;;;;;5086323;28;20076;-77
2024/02/29 08:29:18;;;;;;;28.77;13.10;;;9.60;99.90;;;;;;5091107;28;20052;-78
2024/02/29 08:31:46;;;;;;;32.17;12.57;;;9.70;99.90;;;;;;5087693;28;20051;-77
2024/02/29 08:34:16;;;;;;;29.10;12.60;;;9.80;99.90;;;;;;5102657;27;20076;-76
2024/02/29 08:36:49;;;;;;;28.60;12.70;;;9.90;99.90;;;;;;5083856;28;20391;-75
2024/02/29 08:39:17;;;;;;;24.60;12.50;;;10.00;99.90;;;;;;5097858;28;20097;-74
2024/02/29 08:41:47;;;;;;;30.58;13.35;;;10.10;99.90;;;;;;5083647;28;20399;-75
2024/02/29 08:44:16;;;;;;;26.73;12.43;;;10.10;99.90;;;;;;5086350;28;20048;-77
2024/02/29 08:46:44;;;;;;;26.52;13.20;;;10.30;99.90;;;;;;5103964;28;20072;-76
2024/02/29 08:49:13;;;;;;;31.50;13.48;;;10.40;99.90;;;;;;5099445;28;20051;-77
2024/02/29 08:51:42;;;;;;;28.67;13.70;;;10.40;99.90;;;;;;5081779;28;20051;-75
2024/02/29 08:54:11;;;;;;;31.25;14.85;;;10.40;99.90;;;;;;5087948;28;20041;-75
2024/02/29 08:56:39;;;;;;;27.35;13.02;;;10.40;99.90;;;;;;5084379;28;20050;-75
2024/02/29 08:59:09;;;;;;;26.25;13.20;;;10.50;99.90;;;;;;5088041;28;20135;-75
2024/02/29 09:01:38;;;;;;;25.83;13.73;;;10.60;99.90;;;;;;5088716;28;20036;-77
2024/02/29 09:04:06;;;;;;;28.65;12.45;;;10.60;99.90;;;;;;5083722;28;20050;-78
2024/02/29 09:06:35;;;;;;;33.47;15.23;;;10.60;99.90;;;;;;5087165;28;20094;-80
2024/02/29 09:09:10;;;;;;;28.67;13.63;;;10.70;99.90;;;;;;5088009;28;20119;-77
2024/02/29 09:11:39;;;;;;;33.83;14.48;;;10.80;99.90;;;;;;5088521;28;20089;-77
2024/02/29 09:14:07;;;;;;;26.75;13.18;;;10.80;99.90;;;;;;5088281;28;20201;-79
2024/02/29 09:16:37;;;;;;;31.88;13.95;;;10.90;99.90;;;;;;5084569;28;20039;-78
2024/02/29 09:19:06;;;;;;;26.73;12.73;;;11.00;99.90;;;;;;5086519;28;20093;-80
2024/02/29 09:21:35;;;;;;;29.02;13.45;;;11.10;99.90;;;;;;5085559;28;20526;-79
2024/02/29 09:24:05;;;;;;;30.15;14.43;;;11.20;99.90;;;;;;5094863;28;20052;-80
2024/02/29 09:26:35;;;;;;;28.85;13.32;;;11.20;99.90;;;;;;5083648;28;20048;-76
2024/02/29 09:29:04;;;;;;;23.42;13.55;;;11.30;99.90;;;;;;5087937;28;20056;-75
2024/02/29 09:31:32;;;;;;;22.80;13.10;;;11.40;99.90;;;;;;5087800;28;20047;-76
2024/02/29 09:34:01;;;;;;;30.63;13.18;;;11.60;99.90;;;;;;5083256;28;20119;-75
2024/02/29 09:36:31;;;;;;;29.02;13.45;;;11.80;99.90;;;;;;5085394;28;20507;-77
2024/02/29 09:38:59;;;;;;;28.52;14.10;;;11.90;99.90;;;;;;5080218;28;20033;-75
2024/02/29 09:41:28;;;;;;;28.60;12.98;;;12.00;99.90;;;;;;5102485;28;20409;-79
2024/02/29 09:44:19;;;;;;;26.17;13.63;;;12.00;99.90;;;;;;5086801;28;20052;-75
2024/02/29 09:46:50;;;;;;;28.75;13.77;;;12.20;99.90;;;;;;5087624;28;20139;-76
2024/02/29 09:49:19;;;;;;;25.58;12.88;;;12.40;99.90;;;;;;5100397;27;20048;-77
2024/02/29 09:51:50;;;;;;;27.88;12.65;;;12.50;99.90;;;;;;5083912;28;20044;-76
2024/02/29 09:54:18;;;;;;;24.88;12.02;;;12.60;99.90;;;;;;5084113;28;20059;-75
2024/02/29 09:56:47;;;;;;;27.98;14.65;;;12.60;99.90;;;;;;5087429;28;20035;-76
2024/02/29 09:59:19;;;;;;;25.45;13.32;;;12.60;99.90;;;;;;5100371;27;20048;-77
2024/02/29 10:01:51;;;;;;;27.02;12.45;;;12.70;99.90;;;;;;5078507;28;20450;-76
2024/02/29 10:04:20;;;;;;;31.65;13.38;;;12.90;99.90;;;;;;5097559;28;20040;-74
2024/02/29 10:06:50;;;;;;;31.02;12.95;;;12.90;99.90;;;;;;5081752;28;20509;-78
2024/02/29 10:09:20;;;;;;;25.33;12.55;;;12.90;99.90;;;;;;5085922;28;20174;-75
2024/02/29 10:11:49;;;;;;;26.67;13.10;;;12.80;99.90;;;;;;5081677;28;20041;-75
2024/02/29 10:14:25;;;;;;;23.77;12.13;;;12.80;99.90;;;;;;5082797;28;20052;-79
2024/02/29 10:16:56;;;;;;;24.80;12.23;;;12.70;99.90;;;;;;5080946;28;20040;-78
2024/02/29 10:19:27;;;;;;;29.40;13.10;;;12.80;99.90;;;;;;5096220;27;20135;-75
2024/02/29 10:21:56;;;;;;;25.75;12.95;;;12.90;99.90;;;;;;5083303;28;20411;-75
2024/02/29 10:24:28;;;;;;;;;;;12.80;99.90;;;;;;5086610;28;20134;-74
2024/02/29 10:27:01;;;;;;;25.45;14.02;;;12.80;99.90;;;;;;5084771;28;20375;-75
2024/02/29 10:29:32;;;;;;;25.90;11.40;;;13.00;99.90;;;;;;5098474;28;20051;-77
2024/02/29 10:32:01;;;;;;;24.20;12.00;;;13.20;99.90;;;;;;5096981;28;20569;-77
2024/02/29 10:34:30;;;;;;;24.50;13.15;;;13.40;99.90;;;;;;5089515;28;20094;-75
2024/02/29 10:37:00;;;;;;;20.38;10.77;;;13.50;99.90;;;;;;5087013;28;20047;-74
2024/02/29 10:39:29;;;;;;;24.92;13.05;;;13.80;99.90;;;;;;5079029;28;20047;-75
2024/02/29 10:42:03;;;;;;;24.42;11.05;;;14.00;99.90;;;;;;5100293;27;20499;-76
2024/02/29 10:44:36;;;;;;;26.77;13.50;;;14.00;99.90;;;;;;5096454;28;20407;-75
2024/02/29 10:47:08;;;;;;;;;;;14.00;99.90;;;;;;5079709;28;20117;-75
2024/02/29 10:49:46;;;;;;;31.58;11.85;;;13.90;99.90;;;;;;5083243;28;19924;-76
2024/02/29 10:52:21;;;;;;;24.48;11.65;;;14.00;99.90;;;;;;5101507;28;20044;-75
2024/02/29 10:55:05;;;;;;;24.77;10.82;;;14.10;99.90;;;;;;5079695;28;20130;-75
2024/02/29 10:57:43;;;;;;;23.23;11.30;;;14.30;99.90;;;;;;5080383;28;20063;-75
2024/02/29 11:00:14;;;;;;;23.73;11.75;;;14.60;99.90;;;;;;5083343;28;20105;-74
2024/02/29 11:02:43;;;;;;;22.90;10.25;;;14.60;99.90;;;;;;5086183;28;20055;-75
2024/02/29 11:05:13;;;;;;;19.98;11.07;;;14.80;99.90;;;;;;5083616;28;20058;-74
2024/02/29 11:07:42;;;;;;;16.02;8.07;;;14.70;99.90;;;;;;5101046;27;20570;-75
2024/02/29 11:10:13;;;;;;;20.90;10.15;;;14.60;99.90;;;;;;5079488;28;20491;-75
2024/02/29 11:12:44;;;;;;;19.58;8.65;;;14.50;99.90;;;;;;5097592;28;20032;-75
2024/02/29 11:15:14;;;;;;;23.05;12.00;;;14.40;99.90;;;;;;5098047;28;20062;-76
2024/02/29 11:17:45;;;;;;;20.95;11.13;;;14.40;99.90;;;;;;5078354;28;20051;-74
2024/02/29 11:20:21;;;;;;;18.80;9.32;;;14.50;99.90;;;;;;5083841;28;20444;-74
2024/02/29 11:22:49;;;;;;;21.75;11.18;;;14.60;99.90;;;;;;5072764;28;20063;-76
2024/02/29 11:25:21;;;;;;;20.05;9.45;;;14.60;99.90;;;;;;5076542;28;20044;-74
2024/02/29 11:27:52;;;;;;;11.35;6.65;;;14.80;99.90;;;;;;5077801;28;20117;-78
2024/02/29 11:30:23;;;;;;;18.70;9.88;;;14.70;99.90;;;;;;5073751;28;20575;-74
2024/02/29 11:32:52;;;;;;;25.45;7.45;;;14.70;99.90;;;;;;5091375;28;20040;-74
2024/02/29 11:35:23;;;;;;;17.80;8.23;;;14.70;99.90;;;;;;5080686;28;20042;-74
2024/02/29 11:37:54;;;;;;;15.48;7.70;;;14.90;99.90;;;;;;5082700;28;20152;-74
2024/02/29 11:40:25;;;;;;;18.83;7.68;;;15.00;99.90;;;;;;5089175;28;20067;-74
2024/02/29 11:42:59;;;;;;;16.30;6.60;;;15.00;99.90;;;;;;5086275;28;20059;-73
2024/02/29 11:45:29;;;;;;;20.38;8.55;;;15.00;99.90;;;;;;5084275;28;20468;-74
2024/02/29 11:47:57;;;;;;;15.38;6.80;;;14.90;99.90;;;;;;5086797;28;20487;-74
2024/02/29 11:50:26;;;;;;;15.38;7.30;;;14.90;99.90;;;;;;5079285;28;20051;-76
2024/02/29 11:53:00;;;;;;;13.68;7.25;;;14.80;99.90;;;;;;5084208;28;20105;-74
2024/02/29 11:55:30;;;;;;;15.95;9.00;;;14.80;99.90;;;;;;5101283;28;20057;-74
2024/02/29 11:58:00;;;;;;;20.45;7.85;;;14.70;99.90;;;;;;5079491;28;20562;-75
2024/02/29 12:00:31;;;;;;;18.73;8.52;;;14.60;99.90;;;;;;5086226;28;20036;-74
2024/02/29 12:02:59;;;;;;;14.85;7.20;;;14.80;99.90;;;;;;5082969;28;20040;-74
2024/02/29 12:05:29;;;;;;;14.02;7.50;;;14.90;99.90;;;;;;5083443;28;20125;-74
2024/02/29 12:07:59;;;;;;;15.32;7.55;;;15.10;99.90;;;;;;5083885;28;20109;-74
2024/02/29 12:10:28;;;;;;;11.90;5.70;;;15.10;99.90;;;;;;5090846;28;20081;-75
2024/02/29 12:12:57;;;;;;;16.63;8.27;;;15.10;99.90;;;;;;5084281;28;20063;-74
2024/02/29 12:15:26;;;;;;;14.43;7.80;;;15.10;99.90;;;;;;5088190;28;20490;-76
2024/02/29 12:17:56;;;;;;;15.52;8.35;;;15.20;99.90;;;;;;5085021;28;20067;-74
2024/02/29 12:20:26;;;;;;;17.38;7.90;;;15.20;99.90;;;;;;5084869;28;20115;-76
2024/02/29 12:22:58;;;;;;;20.83;9.50;;;15.30;99.90;;;;;;5085357;28;20124;-75
2024/02/29 12:25:27;;;;;;;14.95;7.93;;;15.30;99.90;;;;;;5086454;28;20581;-74
2024/02/29 12:27:56;;;;;;;22.75;8.45;;;15.30;99.90;;;;;;5089712;28;20082;-74
2024/02/29 12:30:24;;;;;;;15.18;7.40;;;15.20;99.90;;;;;;5099790;28;20066;-74
2024/02/29 12:32:53;;;;;;;15.88;7.15;;;15.10;99.90;;;;;;5084470;28;20456;-74
2024/02/29 12:35:27;;;;;;;17.08;7.30;;;15.10;99.90;;;;;;5086033;28;20052;-75
2024/02/29 12:37:56;;;;;;;17.35;8.40;;;15.10;99.90;;;;;;5086417;28;20052;-74
2024/02/29 12:40:29;;;;;;;15.43;8.20;;;15.10;99.90;;;;;;5086579;28;20044;-76
2024/02/29 12:42:58;;;;;;;17.15;9.15;;;15.00;99.90;;;;;;5086369;28;20048;-74
2024/02/29 12:45:28;;;;;;;14.30;7.43;;;15.00;99.90;;;;;;5084855;28;20052;-75
2024/02/29 12:47:56;;;;;;;14.18;7.25;;;15.10;99.90;;;;;;5082596;28;20078;-75
2024/02/29 12:50:26;;;;;;;20.42;7.63;;;15.00;99.90;;;;;;5081960;28;20446;-74